createdAt,value
2022-08-27T00:05:08.572Z,100377
2022-08-27T00:10:59.195Z,100379
2022-08-27T00:18:02.347Z,100371
2022-08-27T00:23:51.765Z,100364
2022-08-27T00:29:45.641Z,100372
2022-08-27T00:35:38.786Z,100378
2022-08-27T00:41:32.280Z,100373
2022-08-27T00:47:23.695Z,100371
2022-08-27T00:53:17.939Z,100370
2022-08-27T00:59:09.614Z,100371
2022-08-27T01:05:02.080Z,100363
2022-08-27T01:11:10.698Z,100362
2022-08-27T01:17:00.588Z,100359
2022-08-27T01:22:54.014Z,100349
2022-08-27T01:28:46.708Z,100354
2022-08-27T01:34:39.972Z,100353
2022-08-27T01:40:33.614Z,100350
2022-08-27T01:46:24.128Z,100353
2022-08-27T01:52:15.794Z,100351
2022-08-27T01:58:08.545Z,100346
2022-08-27T02:04:06.267Z,100342
2022-08-27T02:09:59.097Z,100334
2022-08-27T02:15:50.936Z,100333
2022-08-27T02:21:42.146Z,100336
2022-08-27T02:27:35.350Z,100333
2022-08-27T02:33:28.087Z,100330
2022-08-27T02:39:18.664Z,100335
2022-08-27T02:45:12.693Z,100334
2022-08-27T02:51:14.150Z,100335
2022-08-27T02:57:07.547Z,100335
2022-08-27T03:02:59.231Z,100337
2022-08-27T03:08:56.669Z,100330
2022-08-27T03:14:47.367Z,100340
2022-08-27T03:20:37.861Z,100339
2022-08-27T03:26:31.185Z,100331
2022-08-27T03:32:22.384Z,100332
2022-08-27T03:38:14.629Z,100336
2022-08-27T03:44:04.881Z,100341
2022-08-27T03:49:56.865Z,100347
2022-08-27T03:55:48.589Z,100348
2022-08-27T04:01:42.086Z,100343
2022-08-27T04:07:34.425Z,100351
2022-08-27T04:13:27.783Z,100340
2022-08-27T04:19:22.897Z,100344
2022-08-27T04:25:16.305Z,100348
2022-08-27T04:31:20.243Z,100353
2022-08-27T04:37:26.877Z,100346
2022-08-27T04:43:20.532Z,100361
2022-08-27T04:49:15.319Z,100369
2022-08-27T04:55:08.615Z,100373
2022-08-27T05:01:01.817Z,100373
2022-08-27T05:06:59.152Z,100376
2022-08-27T05:12:50.117Z,100377
2022-08-27T05:18:55.826Z,100384
2022-08-27T05:24:50.432Z,100392
2022-08-27T05:30:42.424Z,100387
2022-08-27T05:36:52.270Z,100387
2022-08-27T05:42:50.259Z,100377
2022-08-27T05:48:44.233Z,100377
2022-08-27T05:54:35.929Z,100384
2022-08-27T06:00:29.504Z,100386
2022-08-27T06:06:20.768Z,100389
2022-08-27T06:12:14.300Z,100385
2022-08-27T06:18:05.307Z,100385
2022-08-27T06:23:56.164Z,100390
2022-08-27T06:29:47.606Z,100401
2022-08-27T06:35:38.441Z,100395
2022-08-27T06:41:29.666Z,100396
2022-08-27T06:47:24.436Z,100389
2022-08-27T06:53:14.943Z,100383
2022-08-27T06:59:15.677Z,100391
2022-08-27T07:05:05.978Z,100393
2022-08-27T07:10:58.278Z,100392
2022-08-27T07:16:53.297Z,100405
2022-08-27T07:22:44.292Z,100399
2022-08-27T07:28:36.808Z,100402
2022-08-27T07:34:28.804Z,100400
2022-08-27T07:40:20.186Z,100402
2022-08-27T07:46:11.592Z,100403
2022-08-27T07:52:04.014Z,100412
2022-08-27T07:57:55.312Z,100418
2022-08-27T08:03:46.821Z,100420
2022-08-27T08:09:38.781Z,100423
2022-08-27T08:15:29.935Z,100427
2022-08-27T08:21:21.508Z,100427
2022-08-27T08:27:13.535Z,100436
2022-08-27T08:33:04.623Z,100436
2022-08-27T08:38:55.849Z,100438
2022-08-27T08:44:47.400Z,100436
2022-08-27T08:50:38.307Z,100448
2022-08-27T08:56:29.812Z,100450
2022-08-27T09:02:20.864Z,100451
2022-08-27T09:08:45.939Z,100460
2022-08-27T09:14:36.271Z,100456
2022-08-27T09:20:28.550Z,100458
2022-08-27T09:26:20.564Z,100467
2022-08-27T09:32:11.285Z,100475
2022-08-27T09:38:01.909Z,100470
2022-08-27T09:43:53.049Z,100476
2022-08-27T09:49:44.017Z,100473
2022-08-27T09:55:37.959Z,100485
2022-08-27T10:01:31.629Z,100483
2022-08-27T10:07:24.200Z,100487
2022-08-27T10:13:14.965Z,100484
2022-08-27T10:19:07.090Z,100482
2022-08-27T10:24:58.383Z,100480
2022-08-27T10:30:49.429Z,100486
2022-08-27T10:36:42.081Z,100494
2022-08-27T10:42:34.031Z,100493
2022-08-27T10:48:25.031Z,100487
2022-08-27T10:54:18.140Z,100485
2022-08-27T11:00:10.237Z,100490
2022-08-27T11:06:01.882Z,100492
2022-08-27T11:12:17.400Z,100494
2022-08-27T11:18:07.192Z,100490
2022-08-27T11:23:59.487Z,100492
2022-08-27T11:29:50.723Z,100494
2022-08-27T11:35:49.116Z,100495
2022-08-27T11:41:48.554Z,100496
2022-08-27T11:47:42.083Z,100489
2022-08-27T11:53:33.218Z,100497
2022-08-27T11:59:40.173Z,100484
2022-08-27T12:05:32.196Z,100481
2022-08-27T12:11:25.178Z,100485
2022-08-27T12:17:16.085Z,100496
2022-08-27T12:23:08.814Z,100487
2022-08-27T12:29:00.956Z,100485
2022-08-27T12:34:57.760Z,100483
2022-08-27T12:40:50.179Z,100482
2022-08-27T12:46:39.494Z,100484
2022-08-27T12:52:29.444Z,100485
2022-08-27T12:58:19.656Z,100482
2022-08-27T13:04:09.228Z,100477
2022-08-27T13:10:01.564Z,100476
2022-08-27T13:15:51.707Z,100468
2022-08-27T13:21:42.507Z,100462
2022-08-27T13:27:32.588Z,100457
2022-08-27T13:33:22.185Z,100458
2022-08-27T13:39:11.359Z,100456
2022-08-27T13:45:01.077Z,100457
2022-08-27T13:50:54.912Z,100444
2022-08-27T13:56:48.822Z,100456
2022-08-27T14:02:39.818Z,100454
2022-08-27T14:08:44.807Z,100458
2022-08-27T14:14:36.458Z,100446
2022-08-27T14:20:27.643Z,100447
2022-08-27T14:26:19.216Z,100447
2022-08-27T14:32:12.308Z,100451
2022-08-27T14:38:04.503Z,100449
2022-08-27T14:43:55.917Z,100448
2022-08-27T14:49:49.119Z,100445
2022-08-27T14:55:41.370Z,100447
2022-08-27T15:01:40.834Z,100455
2022-08-27T15:07:33.227Z,100450
2022-08-27T15:13:25.840Z,100453
2022-08-27T15:19:17.302Z,100464
2022-08-27T15:25:09.568Z,100459
2022-08-27T15:31:01.349Z,100462
2022-08-27T15:36:53.116Z,100454
2022-08-27T15:42:44.488Z,100462
2022-08-27T15:48:37.053Z,100456
2022-08-27T15:54:28.578Z,100460
2022-08-27T16:00:19.749Z,100459
2022-08-27T16:06:10.946Z,100464
2022-08-27T16:12:08.083Z,100464
2022-08-27T16:18:14.493Z,100459
2022-08-27T16:24:06.886Z,100457
2022-08-27T16:29:59.943Z,100450
2022-08-27T16:35:54.141Z,100454
2022-08-27T16:41:45.456Z,100445
2022-08-27T16:47:37.671Z,100442
2022-08-27T16:53:30.995Z,100441
2022-08-27T16:59:22.400Z,100448
2022-08-27T17:05:37.749Z,100443
2022-08-27T17:11:28.334Z,100450
2022-08-27T17:17:20.764Z,100441
2022-08-27T17:23:12.070Z,100454
2022-08-27T17:29:03.412Z,100446
2022-08-27T17:34:54.749Z,100445
2022-08-27T17:40:53.728Z,100451
2022-08-27T17:46:44.423Z,100453
2022-08-27T17:52:35.992Z,100452
2022-08-27T17:58:28.004Z,100456
2022-08-27T18:04:19.511Z,100453
2022-08-27T18:10:09.852Z,100462
2022-08-27T18:16:01.369Z,100468
2022-08-27T18:21:53.303Z,100473
2022-08-27T18:27:43.981Z,100480
2022-08-27T18:33:35.201Z,100472
2022-08-27T18:39:29.018Z,100480
2022-08-27T18:45:23.171Z,100483
2022-08-27T18:51:17.091Z,100481
2022-08-27T18:57:08.535Z,100489
2022-08-27T19:03:01.216Z,100484
2022-08-27T19:08:53.598Z,100487
2022-08-27T19:14:50.701Z,100490
2022-08-27T19:20:41.209Z,100490
2022-08-27T19:26:32.224Z,100493
2022-08-27T19:32:24.376Z,100497
2022-08-27T19:38:15.953Z,100507
2022-08-27T19:44:07.003Z,100511
2022-08-27T19:49:58.570Z,100514
2022-08-27T19:55:49.844Z,100510
2022-08-27T20:01:42.838Z,100518
2022-08-27T20:07:38.131Z,100512
2022-08-27T20:13:39.818Z,100514
2022-08-27T20:19:41.711Z,100516
2022-08-27T20:25:32.755Z,100516
2022-08-27T20:31:22.966Z,100521
2022-08-27T20:37:14.050Z,100526
2022-08-27T20:43:07.438Z,100529
2022-08-27T20:48:58.088Z,100534
2022-08-27T20:54:49.463Z,100535
2022-08-27T21:00:41.644Z,100534
2022-08-27T21:06:36.482Z,100542
2022-08-27T21:12:27.239Z,100541
2022-08-27T21:18:18.535Z,100539
2022-08-27T21:24:18.647Z,100540
2022-08-27T21:30:10.942Z,100541
2022-08-27T21:36:08.946Z,100543
2022-08-27T21:42:03.920Z,100544
2022-08-27T21:47:56.472Z,100552
2022-08-27T21:53:47.835Z,100547
2022-08-27T21:59:39.716Z,100549
2022-08-27T22:05:33.350Z,100549
2022-08-27T22:11:30.748Z,100547
2022-08-27T22:17:24.119Z,100550
2022-08-27T22:23:20.070Z,100544
2022-08-27T22:29:11.437Z,100543
2022-08-27T22:35:08.191Z,100540
2022-08-27T22:41:04.664Z,100542
2022-08-27T22:46:55.446Z,100536
2022-08-27T22:52:46.904Z,100540
2022-08-27T22:58:44.025Z,100540
2022-08-27T23:04:58.390Z,100541
2022-08-27T23:10:53.649Z,100533
2022-08-27T23:16:46.796Z,100530
2022-08-27T23:22:43.354Z,100533
2022-08-27T23:28:34.208Z,100529
2022-08-27T23:34:26.147Z,100519
2022-08-27T23:40:19.776Z,100523
2022-08-27T23:46:15.098Z,100518
2022-08-27T23:52:06.437Z,100520
2022-08-27T23:57:58.764Z,100522
